Time;durP1;ratioP1;P1;durP2;ratioP2;P2;SDS_P1;SDS_P2;PMS_P1;PMS_P2;Temp;Humidity;BMP_temperature;BMP_pressure;BME280_temperature;BME280_humidity;BME280_pressure;Samples;Min_cycle;Max_cycle;Signal;HPM_P1;HPM_P2
2021/09/15 00:02:21;;;;;;;9.30;7.73;;;21.30;90.10;;;;;;4922763;29;20544;-80
2021/09/15 00:04:47;;;;;;;8.90;8.00;;;21.30;90.10;;;;;;4923711;29;20205;-82
2021/09/15 00:07:13;;;;;;;10.23;8.40;;;21.30;90.20;;;;;;4922758;29;20643;-83
2021/09/15 00:09:38;;;;;;;8.33;7.37;;;21.30;90.20;;;;;;4925884;29;20199;-82
2021/09/15 00:12:04;;;;;;;13.33;7.70;;;21.30;90.20;;;;;;4925551;29;20194;-82
2021/09/15 00:14:30;;;;;;;8.80;7.90;;;21.20;90.20;;;;;;4930054;29;20174;-79
2021/09/15 00:16:55;;;;;;;9.73;8.47;;;21.20;90.20;;;;;;4935720;29;20186;-83
2021/09/15 00:19:21;;;;;;;8.30;7.50;;;21.20;90.20;;;;;;4933343;29;20178;-83
2021/09/15 00:21:47;;;;;;;11.40;8.30;;;21.20;90.20;;;;;;4927349;29;20194;-82
2021/09/15 00:24:12;;;;;;;9.00;7.70;;;21.20;90.20;;;;;;4922375;29;20193;-82
2021/09/15 00:26:38;;;;;;;11.20;8.70;;;21.20;90.30;;;;;;4921272;29;20631;-83
2021/09/15 00:29:04;;;;;;;9.23;8.20;;;21.20;90.30;;;;;;4922319;29;20159;-80
2021/09/15 00:31:30;;;;;;;11.83;8.10;;;21.20;90.70;;;;;;4919437;29;20202;-82
2021/09/15 00:33:55;;;;;;;9.47;7.97;;;21.20;90.40;;;;;;4919431;29;20204;-83
2021/09/15 00:36:21;;;;;;;8.60;7.70;;;21.20;90.40;;;;;;4919783;29;20178;-82
2021/09/15 00:38:47;;;;;;;12.23;8.07;;;21.10;90.30;;;;;;4920420;29;20178;-80
2021/09/15 00:41:12;;;;;;;9.63;7.93;;;21.10;90.40;;;;;;4919936;29;20172;-83
2021/09/15 00:44:08;;;;;;;9.83;8.00;;;21.10;90.50;;;;;;4921977;29;20196;-83
2021/09/15 00:46:36;;;;;;;8.47;7.67;;;21.10;90.60;;;;;;4922416;29;20179;-80
2021/09/15 00:49:02;;;;;;;10.17;7.80;;;21.00;90.60;;;;;;4921714;29;20418;-82
2021/09/15 00:51:32;;;;;;;7.93;7.10;;;21.00;90.60;;;;;;4919681;29;20462;-83
2021/09/15 00:53:58;;;;;;;8.67;7.87;;;21.00;90.70;;;;;;4920223;29;20430;-83
2021/09/15 00:56:26;;;;;;;8.77;7.00;;;21.00;90.80;;;;;;4919401;29;20414;-82
2021/09/15 00:58:54;;;;;;;11.20;7.93;;;20.90;90.80;;;;;;4920061;29;20919;-81
2021/09/15 01:01:19;;;;;;;9.67;7.43;;;20.90;90.90;;;;;;4920257;29;20487;-80
2021/09/15 01:03:46;;;;;;;10.70;8.00;;;20.90;91.00;;;;;;4919480;29;20202;-82
2021/09/15 01:06:12;;;;;;;8.80;8.00;;;20.90;91.00;;;;;;4920486;29;20427;-83
2021/09/15 01:08:40;;;;;;;8.90;7.93;;;20.90;91.10;;;;;;4919253;29;20430;-80
2021/09/15 01:11:10;;;;;;;10.00;8.63;;;20.90;91.10;;;;;;4920528;29;20453;-82
2021/09/15 01:13:45;;;;;;;9.70;8.70;;;20.90;91.10;;;;;;4904432;29;20444;-82
2021/09/15 01:16:50;;;;;;;8.50;7.60;;;20.90;91.10;;;;;;4919943;29;20413;-82
2021/09/15 01:19:36;;;;;;;12.23;8.47;;;20.90;91.10;;;;;;4920523;29;20781;-83
2021/09/15 01:22:20;;;;;;;9.80;7.90;;;20.90;91.10;;;;;;4919966;29;20416;-80
2021/09/15 01:25:03;;;;;;;9.87;8.43;;;20.90;91.10;;;;;;4918727;29;20855;-82
2021/09/15 01:27:53;;;;;;;9.90;8.43;;;20.90;91.10;;;;;;4919549;29;20407;-82
2021/09/15 01:30:21;;;;;;;9.57;8.03;;;20.90;91.20;;;;;;4919739;29;20920;-80
2021/09/15 01:32:51;;;;;;;8.50;7.27;;;20.90;91.20;;;;;;4917996;29;20470;-83
2021/09/15 01:35:18;;;;;;;8.77;7.77;;;20.90;91.30;;;;;;4923567;28;20421;-83
2021/09/15 01:37:44;;;;;;;9.23;7.20;;;20.90;91.40;;;;;;4938438;28;20474;-84
2021/09/15 01:40:10;;;;;;;9.07;8.13;;;20.80;91.40;;;;;;4927113;28;20226;-83
2021/09/15 01:42:37;;;;;;;8.83;7.93;;;20.80;91.60;;;;;;4920313;29;20269;-83
2021/09/15 01:45:07;;;;;;;10.70;7.73;;;20.80;91.60;;;;;;4920270;29;20462;-82
2021/09/15 01:47:33;;;;;;;9.33;7.87;;;20.80;91.70;;;;;;4920094;29;20425;-82
2021/09/15 01:49:59;;;;;;;10.60;8.40;;;20.70;91.70;;;;;;4920232;29;20417;-82
2021/09/15 01:52:25;;;;;;;12.17;8.53;;;20.70;91.70;;;;;;4920202;29;20201;-81
2021/09/15 01:54:51;;;;;;;11.33;8.40;;;20.70;91.80;;;;;;4918560;29;20281;-80
2021/09/15 01:57:17;;;;;;;10.97;8.87;;;20.70;91.90;;;;;;4919264;29;20432;-79
2021/09/15 02:00:05;;;;;;;13.97;8.07;;;20.70;91.90;;;;;;4918690;29;20426;-80
2021/09/15 02:02:53;;;;;;;8.63;7.73;;;20.70;91.90;;;;;;4918480;29;20434;-80
2021/09/15 02:05:31;;;;;;;11.50;7.90;;;20.70;92.00;;;;;;4918230;29;20419;-80
2021/09/15 02:08:15;;;;;;;9.33;7.87;;;20.70;92.00;;;;;;4920760;29;20417;-80
2021/09/15 02:10:52;;;;;;;13.60;8.73;;;20.60;92.00;;;;;;4918767;29;20469;-82
2021/09/15 02:13:19;;;;;;;12.57;8.60;;;20.60;92.10;;;;;;4919340;29;20429;-81
2021/09/15 02:15:45;;;;;;;10.50;9.40;;;20.60;92.10;;;;;;4920560;29;20402;-82
2021/09/15 02:18:11;;;;;;;9.30;7.90;;;20.60;92.20;;;;;;4919448;29;20287;-82
2021/09/15 02:21:07;;;;;;;11.27;8.50;;;20.60;92.20;;;;;;4922260;29;20917;-83
2021/09/15 02:23:52;;;;;;;11.57;8.80;;;20.60;92.20;;;;;;4923068;29;20616;-80
2021/09/15 02:26:31;;;;;;;10.63;8.07;;;20.50;92.30;;;;;;4922049;29;20516;-80
2021/09/15 02:28:59;;;;;;;11.17;8.90;;;20.50;92.30;;;;;;4922466;29;20419;-83
2021/09/15 02:31:38;;;;;;;9.10;8.20;;;20.50;92.30;;;;;;4924181;29;20457;-82
2021/09/15 02:34:26;;;;;;;9.37;8.43;;;20.50;92.40;;;;;;4919862;29;20530;-79
2021/09/15 02:37:12;;;;;;;10.00;9.00;;;20.50;92.50;;;;;;4924510;29;20622;-81
2021/09/15 02:39:54;;;;;;;8.90;8.00;;;20.50;92.50;;;;;;4922814;29;20409;-81
2021/09/15 02:42:39;;;;;;;9.90;8.27;;;20.50;92.60;;;;;;4925326;23;20494;-73
2021/09/15 02:45:10;;;;;;;9.17;8.20;;;20.50;92.60;;;;;;4887675;29;20802;-74
2021/09/15 02:47:48;;;;;;;11.40;9.10;;;20.50;92.60;;;;;;4900589;29;20407;-74
2021/09/15 02:50:19;;;;;;;12.37;8.03;;;20.50;92.60;;;;;;4898342;29;20498;-73
2021/09/15 02:52:57;;;;;;;11.43;9.20;;;20.50;92.60;;;;;;4897474;29;20814;-74
2021/09/15 02:55:49;;;;;;;9.60;7.90;;;20.50;92.70;;;;;;4904516;29;20555;-73
2021/09/15 02:58:37;;;;;;;14.07;10.20;;;20.40;92.70;;;;;;4897294;29;20911;-73
2021/09/15 03:01:21;;;;;;;11.53;8.70;;;20.40;92.70;;;;;;4898515;29;20525;-74
2021/09/15 03:03:57;;;;;;;9.10;8.20;;;20.40;92.80;;;;;;4897049;29;20410;-74
2021/09/15 03:06:27;;;;;;;16.80;8.77;;;20.40;92.90;;;;;;4897233;29;20499;-74
2021/09/15 03:09:08;;;;;;;9.07;8.17;;;20.40;92.90;;;;;;4897231;29;20937;-75
2021/09/15 03:11:34;;;;;;;9.60;8.67;;;20.40;93.00;;;;;;4896860;29;20849;-72
2021/09/15 03:14:00;;;;;;;10.07;9.00;;;20.40;93.10;;;;;;4897166;29;20452;-73
2021/09/15 03:16:26;;;;;;;20.37;9.07;;;20.40;93.50;;;;;;4897968;29;20719;-74
2021/09/15 03:18:57;;;;;;;10.23;9.10;;;20.40;93.10;;;;;;4897031;29;20415;-73
2021/09/15 03:21:24;;;;;;;9.17;8.23;;;20.40;93.20;;;;;;4896626;29;20446;-73
2021/09/15 03:23:50;;;;;;;11.57;7.73;;;20.40;93.30;;;;;;4896658;29;20424;-73
2021/09/15 03:26:15;;;;;;;11.47;8.80;;;20.40;93.40;;;;;;4881360;29;20175;-73
2021/09/15 03:28:41;;;;;;;12.43;10.20;;;20.40;93.40;;;;;;4898550;29;20171;-73
2021/09/15 03:31:07;;;;;;;12.07;10.87;;;20.30;93.40;;;;;;4896398;29;20214;-73
2021/09/15 03:33:34;;;;;;;11.53;9.30;;;20.30;93.50;;;;;;4896383;29;20204;-73
2021/09/15 03:36:00;;;;;;;11.60;9.70;;;20.30;93.60;;;;;;4897082;29;21016;-72
2021/09/15 03:38:27;;;;;;;10.77;9.07;;;20.30;93.70;;;;;;4896574;29;20641;-73
2021/09/15 03:40:53;;;;;;;13.50;9.23;;;20.30;93.70;;;;;;4896883;29;20437;-73
2021/09/15 03:43:19;;;;;;;12.73;9.83;;;20.30;93.80;;;;;;4897402;29;20186;-73
2021/09/15 03:45:45;;;;;;;12.50;10.23;;;20.20;93.90;;;;;;4899104;29;20550;-72
2021/09/15 03:48:11;;;;;;;10.20;9.20;;;20.20;94.00;;;;;;4896987;29;20179;-72
2021/09/15 03:50:37;;;;;;;12.60;11.23;;;20.20;94.20;;;;;;4882722;29;20455;-73
2021/09/15 03:53:02;;;;;;;19.13;11.27;;;20.20;94.30;;;;;;4903453;29;20604;-75
2021/09/15 03:55:28;;;;;;;15.53;10.50;;;20.10;94.40;;;;;;4899921;29;20188;-75
2021/09/15 03:57:54;;;;;;;13.43;9.83;;;20.10;94.50;;;;;;4906396;29;20253;-74
2021/09/15 04:00:20;;;;;;;14.53;10.87;;;20.10;94.70;;;;;;4895907;29;20253;-73
2021/09/15 04:02:53;;;;;;;13.50;11.10;;;20.10;94.80;;;;;;4896551;29;20936;-75
2021/09/15 04:05:26;;;;;;;12.70;9.03;;;20.10;94.90;;;;;;4896371;29;20427;-74
2021/09/15 04:07:51;;;;;;;10.83;9.73;;;20.10;95.10;;;;;;4897638;29;20790;-74
2021/09/15 04:10:17;;;;;;;11.20;10.10;;;20.00;95.50;;;;;;4897269;29;20439;-74
2021/09/15 04:12:43;;;;;;;13.10;10.00;;;20.00;95.20;;;;;;4895792;29;20222;-74
2021/09/15 04:15:11;;;;;;;13.10;10.37;;;20.00;95.40;;;;;;4895717;29;20499;-75
2021/09/15 04:17:36;;;;;;;15.73;11.10;;;20.00;95.40;;;;;;4896001;29;20469;-74
2021/09/15 04:20:05;;;;;;;11.60;9.83;;;20.00;95.60;;;;;;4895811;29;20465;-75
2021/09/15 04:22:35;;;;;;;12.37;11.00;;;20.00;95.80;;;;;;4895796;29;20467;-74
2021/09/15 04:33:00;;;;;;;11.70;10.60;;;19.90;96.30;;;;;;4895610;29;20459;-74
2021/09/15 04:35:26;;;;;;;16.80;13.23;;;19.90;96.40;;;;;;4897308;29;20609;-71
2021/09/15 04:37:54;;;;;;;17.10;12.47;;;19.90;96.50;;;;;;4893155;29;20425;-73
2021/09/15 04:40:21;;;;;;;14.60;11.57;;;19.90;96.60;;;;;;4894827;29;20816;-73
2021/09/15 04:42:47;;;;;;;14.23;12.00;;;19.90;96.60;;;;;;4896817;29;20466;-75
2021/09/15 04:45:14;;;;;;;15.30;11.77;;;19.90;96.60;;;;;;4896754;29;20650;-73
2021/09/15 04:47:40;;;;;;;16.53;12.40;;;19.80;96.70;;;;;;4896981;29;20500;-74
2021/09/15 04:50:07;;;;;;;12.33;10.63;;;19.80;96.70;;;;;;4897242;29;20458;-74
2021/09/15 04:52:34;;;;;;;14.27;12.77;;;19.80;96.80;;;;;;4896882;29;20474;-72
2021/09/15 04:55:00;;;;;;;13.40;11.13;;;19.80;96.90;;;;;;4911800;29;20498;-74
2021/09/15 04:57:26;;;;;;;16.40;11.77;;;19.80;96.90;;;;;;4896880;29;20414;-73
2021/09/15 04:59:52;;;;;;;13.70;11.53;;;19.80;97.10;;;;;;4895071;29;20387;-75
2021/09/15 05:02:18;;;;;;;13.40;11.60;;;19.80;97.10;;;;;;4893249;29;20458;-73
2021/09/15 05:04:46;;;;;;;14.33;12.83;;;19.70;97.10;;;;;;4892720;29;21243;-73
2021/09/15 05:07:23;;;;;;;17.23;10.30;;;19.70;97.10;;;;;;4896252;29;21005;-72
2021/09/15 05:09:49;;;;;;;17.20;11.23;;;19.70;97.10;;;;;;4894929;29;20804;-73
2021/09/15 05:12:14;;;;;;;15.50;11.03;;;19.70;97.10;;;;;;4895103;29;20461;-73
2021/09/15 05:14:42;;;;;;;12.30;10.83;;;19.70;97.20;;;;;;4891562;29;20229;-73
2021/09/15 05:17:08;;;;;;;13.07;11.47;;;19.70;97.20;;;;;;4905240;29;20426;-72
2021/09/15 05:19:36;;;;;;;11.57;10.47;;;19.70;97.30;;;;;;4891308;29;20499;-72
2021/09/15 05:22:03;;;;;;;14.80;10.40;;;19.70;97.30;;;;;;4891580;29;20439;-72
2021/09/15 05:24:30;;;;;;;25.77;17.87;;;19.70;97.20;;;;;;4876737;29;20869;-72
2021/09/15 05:26:55;;;;;;;13.77;10.40;;;19.70;97.30;;;;;;4885771;29;20513;-72
2021/09/15 05:29:21;;;;;;;12.00;10.53;;;19.70;97.30;;;;;;4876364;29;20193;-73
2021/09/15 05:31:47;;;;;;;12.90;10.13;;;19.70;97.30;;;;;;4875486;29;20209;-73
2021/09/15 05:34:13;;;;;;;11.57;10.37;;;19.70;97.30;;;;;;4883775;29;20505;-72
2021/09/15 05:36:38;;;;;;;15.77;10.13;;;19.70;97.40;;;;;;4894290;29;20317;-73
2021/09/15 05:39:07;;;;;;;13.50;10.17;;;19.70;97.50;;;;;;4891706;29;20178;-72
2021/09/15 05:41:33;;;;;;;12.60;10.77;;;19.70;97.50;;;;;;4893343;29;20858;-73
2021/09/15 05:43:59;;;;;;;11.53;10.30;;;19.80;97.60;;;;;;4894428;29;20522;-73
2021/09/15 05:46:27;;;;;;;16.10;11.30;;;19.80;97.60;;;;;;4894238;29;20187;-72
2021/09/15 05:48:52;;;;;;;13.00;10.70;;;19.80;97.60;;;;;;4909850;29;20440;-72
2021/09/15 05:51:20;;;;;;;16.63;11.27;;;19.80;97.50;;;;;;4891903;29;20472;-73
2021/09/15 05:53:48;;;;;;;13.67;10.77;;;19.90;97.50;;;;;;4894246;29;20456;-73
2021/09/15 05:56:13;;;;;;;12.33;11.00;;;19.90;97.50;;;;;;4896434;29;20453;-72
2021/09/15 05:58:39;;;;;;;14.00;10.57;;;19.90;97.50;;;;;;4899146;29;20185;-73
2021/09/15 06:01:08;;;;;;;12.87;9.63;;;19.90;97.40;;;;;;4898403;29;20530;-73
2021/09/15 06:03:34;;;;;;;15.83;9.63;;;20.00;97.30;;;;;;4898442;29;20468;-72
2021/09/15 06:06:25;;;;;;;15.63;10.40;;;20.00;97.20;;;;;;4894178;29;20424;-72
2021/09/15 06:08:52;;;;;;;13.27;11.17;;;20.00;97.10;;;;;;4879699;29;20427;-72
2021/09/15 06:11:18;;;;;;;11.50;10.13;;;20.00;97.20;;;;;;4879312;29;20466;-72
2021/09/15 06:13:45;;;;;;;12.60;9.90;;;20.00;97.10;;;;;;4880168;29;20172;-74
2021/09/15 06:16:12;;;;;;;12.40;11.00;;;20.00;97.20;;;;;;4880103;29;20423;-73
2021/09/15 06:18:37;;;;;;;14.13;9.87;;;20.00;97.10;;;;;;4879096;29;20774;-73
2021/09/15 06:21:32;;;;;;;13.10;11.00;;;20.00;97.10;;;;;;4887045;29;20439;-74
2021/09/15 06:24:08;;;;;;;15.23;12.70;;;20.00;97.20;;;;;;4879578;29;20414;-74
2021/09/15 06:26:34;;;;;;;15.50;11.37;;;20.00;97.30;;;;;;4887032;29;20453;-74
2021/09/15 06:29:00;;;;;;;13.07;11.07;;;20.10;97.30;;;;;;4899287;29;20460;-74
2021/09/15 06:31:26;;;;;;;12.00;10.80;;;20.10;97.20;;;;;;4897968;29;20317;-75
2021/09/15 06:33:52;;;;;;;13.47;11.00;;;20.10;97.30;;;;;;4900439;29;20589;-76
2021/09/15 06:36:19;;;;;;;17.30;12.47;;;20.10;97.40;;;;;;4899139;29;20186;-76
2021/09/15 06:38:45;;;;;;;13.63;11.07;;;20.20;97.30;;;;;;4898791;29;20415;-76
2021/09/15 06:41:12;;;;;;;15.90;11.60;;;20.20;97.40;;;;;;4894963;29;20507;-75
2021/09/15 06:43:38;;;;;;;17.87;11.43;;;20.30;97.40;;;;;;4897213;29;20487;-76
2021/09/15 06:46:04;;;;;;;15.40;12.20;;;20.40;97.20;;;;;;4898866;29;20519;-75
2021/09/15 06:48:30;;;;;;;12.60;10.90;;;20.50;97.10;;;;;;4898158;29;20920;-75
2021/09/15 06:50:56;;;;;;;15.70;12.03;;;20.50;96.80;;;;;;4901278;29;20427;-75
2021/09/15 06:53:22;;;;;;;13.43;10.60;;;20.50;96.70;;;;;;4882125;29;20447;-76
2021/09/15 06:55:47;;;;;;;12.10;10.60;;;20.50;96.70;;;;;;4897934;29;20461;-75
2021/09/15 06:58:13;;;;;;;13.27;11.13;;;20.50;96.60;;;;;;4896097;29;20175;-75
2021/09/15 07:00:40;;;;;;;15.00;11.47;;;20.60;96.60;;;;;;4898221;29;20173;-76
2021/09/15 07:03:06;;;;;;;14.37;10.03;;;20.60;96.60;;;;;;4917085;29;20484;-76
2021/09/15 07:05:32;;;;;;;12.97;10.20;;;20.60;96.50;;;;;;4916444;29;20268;-76
2021/09/15 07:07:57;;;;;;;13.60;9.67;;;20.80;96.50;;;;;;4898771;29;20178;-75
2021/09/15 07:10:23;;;;;;;12.80;9.50;;;20.90;96.30;;;;;;4897431;29;20530;-75
2021/09/15 07:12:49;;;;;;;11.87;9.53;;;20.90;95.90;;;;;;4898046;29;20211;-76
2021/09/15 07:15:15;;;;;;;16.03;10.60;;;21.00;95.80;;;;;;4897877;29;20171;-76
2021/09/15 07:17:44;;;;;;;14.70;9.70;;;21.10;95.80;;;;;;4897921;29;20495;-75
2021/09/15 07:20:11;;;;;;;11.20;8.67;;;21.20;95.60;;;;;;4911276;29;20491;-76
2021/09/15 07:22:37;;;;;;;12.80;9.00;;;21.20;95.50;;;;;;4898267;29;20439;-76
2021/09/15 07:25:02;;;;;;;12.53;8.90;;;21.20;95.00;;;;;;4897714;29;20818;-76
2021/09/15 07:27:28;;;;;;;10.07;8.70;;;21.30;95.00;;;;;;4898664;29;20633;-76
2021/09/15 07:29:54;;;;;;;10.30;8.30;;;21.30;94.80;;;;;;4900405;29;20164;-77
2021/09/15 07:32:19;;;;;;;7.30;6.30;;;21.40;94.50;;;;;;4898453;29;20723;-77
2021/09/15 07:34:45;;;;;;;9.70;6.47;;;21.40;94.20;;;;;;4898850;29;20213;-76
2021/09/15 07:37:14;;;;;;;10.03;6.73;;;21.50;93.40;;;;;;4897866;29;20190;-75
2021/09/15 07:39:41;;;;;;;9.37;7.03;;;21.50;93.40;;;;;;4896076;29;20191;-76
2021/09/15 07:42:07;;;;;;;6.83;5.73;;;21.70;93.30;;;;;;4898026;29;20522;-76
2021/09/15 07:44:33;;;;;;;9.93;6.97;;;22.00;92.60;;;;;;4898241;29;20996;-75
2021/09/15 07:46:59;;;;;;;10.37;6.70;;;22.30;92.80;;;;;;4902211;29;20443;-76
2021/09/15 07:49:25;;;;;;;8.00;6.03;;;22.80;91.80;;;;;;4902406;29;20664;-76
2021/09/15 07:51:51;;;;;;;7.23;5.30;;;23.20;90.10;;;;;;4897823;29;20203;-76
2021/09/15 07:54:17;;;;;;;8.53;5.40;;;23.40;88.80;;;;;;4897842;29;20451;-75
2021/09/15 07:56:42;;;;;;;12.87;6.07;;;23.50;86.10;;;;;;4898689;29;20428;-76
2021/09/15 07:59:08;;;;;;;8.43;4.50;;;23.50;86.40;;;;;;4865536;29;20172;-76
2021/09/15 08:01:34;;;;;;;11.90;9.97;;;23.50;84.40;;;;;;4897292;29;20673;-77
2021/09/15 08:03:59;;;;;;;7.27;6.20;;;23.30;84.50;;;;;;4912057;29;20167;-76
2021/09/15 08:06:25;;;;;;;6.70;4.83;;;23.10;86.00;;;;;;4897674;29;20258;-76
2021/09/15 08:08:51;;;;;;;10.83;5.50;;;22.90;86.30;;;;;;4897257;29;20288;-75
2021/09/15 08:11:16;;;;;;;8.07;5.47;;;22.70;87.00;;;;;;4894791;29;20198;-76
2021/09/15 08:13:42;;;;;;;8.77;5.80;;;22.60;88.70;;;;;;4897261;29;20164;-76
2021/09/15 08:16:08;;;;;;;10.43;6.20;;;22.40;88.70;;;;;;4900016;29;20653;-76
2021/09/15 08:18:35;;;;;;;11.20;6.90;;;22.40;89.60;;;;;;4896786;29;20473;-77
2021/09/15 08:21:02;;;;;;;9.43;6.03;;;22.40;90.10;;;;;;4895240;29;20256;-77
2021/09/15 08:23:28;;;;;;;8.80;5.83;;;22.40;89.70;;;;;;4891483;29;20458;-76
2021/09/15 08:25:55;;;;;;;7.60;5.57;;;22.40;89.70;;;;;;4898089;29;20471;-76
2021/09/15 08:28:22;;;;;;;9.23;6.20;;;22.40;89.30;;;;;;4896151;29;20411;-76
2021/09/15 08:30:48;;;;;;;11.20;6.67;;;22.30;89.60;;;;;;4896845;29;20801;-77
2021/09/15 08:33:13;;;;;;;9.70;7.00;;;22.20;90.00;;;;;;4897048;29;20433;-75
2021/09/15 08:35:39;;;;;;;9.33;5.30;;;22.10;90.10;;;;;;4896960;29;20227;-76
2021/09/15 08:38:10;;;;;;;9.63;5.73;;;22.10;90.20;;;;;;4897322;29;20171;-78
2021/09/15 08:40:38;;;;;;;8.57;5.90;;;22.00;90.30;;;;;;4896700;29;20171;-75
2021/09/15 08:43:04;;;;;;;7.07;5.70;;;22.00;90.60;;;;;;4896575;29;20451;-75
2021/09/15 08:45:30;;;;;;;6.70;4.70;;;21.90;90.40;;;;;;4896219;29;20842;-76
2021/09/15 08:47:56;;;;;;;14.70;8.40;;;21.90;90.30;;;;;;4897137;29;20175;-76
2021/09/15 08:50:23;;;;;;;8.03;5.77;;;21.90;90.40;;;;;;4896499;29;20250;-76
2021/09/15 08:52:49;;;;;;;5.57;4.97;;;21.90;90.50;;;;;;4894786;29;20475;-76
2021/09/15 08:55:16;;;;;;;8.33;5.03;;;21.90;90.50;;;;;;4894839;29;20415;-74
2021/09/15 08:57:42;;;;;;;11.40;5.30;;;22.00;90.60;;;;;;4896650;29;20415;-76
2021/09/15 09:00:10;;;;;;;7.50;5.57;;;22.10;89.50;;;;;;4896369;29;20175;-75
2021/09/15 09:02:43;;;;;;;8.80;4.90;;;22.10;89.50;;;;;;4880522;29;20270;-76
2021/09/15 09:05:09;;;;;;;10.07;5.27;;;22.10;88.70;;;;;;4895894;29;20446;-76
2021/09/15 09:07:35;;;;;;;7.60;5.70;;;22.10;89.00;;;;;;4896922;29;20423;-75
2021/09/15 09:10:07;;;;;;;10.63;9.43;;;22.20;89.10;;;;;;4895919;29;20644;-76
2021/09/15 09:12:33;;;;;;;7.83;4.63;;;22.30;88.70;;;;;;4895438;29;20466;-77
2021/09/15 09:15:22;;;;;;;7.67;5.43;;;22.30;88.00;;;;;;4894964;29;20475;-75
2021/09/15 09:17:58;;;;;;;6.40;4.27;;;22.40;88.00;;;;;;4895221;29;20415;-75
2021/09/15 09:20:31;;;;;;;6.37;3.87;;;22.60;86.40;;;;;;4897844;29;20415;-76
2021/09/15 09:23:13;;;;;;;14.33;4.50;;;22.70;86.50;;;;;;4895839;29;20937;-76
2021/09/15 09:25:55;;;;;;;5.93;3.33;;;22.80;85.50;;;;;;4896112;29;20419;-76
2021/09/15 09:28:30;;;;;;;10.83;4.37;;;22.70;85.10;;;;;;4895331;29;20415;-76
2021/09/15 09:31:01;;;;;;;8.43;4.30;;;22.70;85.10;;;;;;4878742;29;20948;-76
2021/09/15 09:33:27;;;;;;;6.40;4.50;;;22.70;84.90;;;;;;4890880;29;20775;-76
2021/09/15 09:35:56;;;;;;;3.83;3.20;;;22.80;84.70;;;;;;4888699;29;20428;-75
2021/09/15 09:38:32;;;;;;;8.30;4.40;;;22.80;84.40;;;;;;4893520;29;20495;-75
2021/09/15 09:41:16;;;;;;;7.30;5.80;;;22.80;84.30;;;;;;4888414;29;20510;-75
2021/09/15 09:43:49;;;;;;;9.90;4.30;;;22.80;84.50;;;;;;4891888;29;20434;-75
2021/09/15 09:46:19;;;;;;;5.73;4.00;;;22.70;85.30;;;;;;4882542;29;20420;-76
2021/09/15 09:48:59;;;;;;;6.70;3.63;;;22.70;85.00;;;;;;4880253;29;20479;-77
2021/09/15 09:51:32;;;;;;;5.63;3.57;;;22.60;85.40;;;;;;4879811;29;20471;-76
2021/09/15 09:54:27;;;;;;;6.73;4.23;;;22.60;86.10;;;;;;4876246;29;20427;-76
2021/09/15 09:56:57;;;;;;;5.23;3.73;;;22.60;87.10;;;;;;4874249;29;20409;-76
2021/09/15 09:59:26;;;;;;;8.40;4.40;;;22.50;87.40;;;;;;4895368;29;20858;-75
2021/09/15 10:02:02;;;;;;;6.17;3.67;;;22.40;88.90;;;;;;4897727;29;20957;-76
2021/09/15 10:04:28;;;;;;;4.73;3.50;;;22.30;89.90;;;;;;4897584;29;20407;-78
2021/09/15 10:06:55;;;;;;;5.43;3.47;;;22.20;90.70;;;;;;4894874;29;20503;-76
2021/09/15 10:09:23;;;;;;;6.90;4.80;;;22.10;91.00;;;;;;4895195;29;20451;-78
2021/09/15 10:11:49;;;;;;;5.60;4.60;;;22.00;91.40;;;;;;4891981;29;20492;-74
2021/09/15 10:14:16;;;;;;;5.93;5.10;;;21.90;91.70;;;;;;4892522;29;20416;-76
2021/09/15 10:17:04;;;;;;;5.93;3.80;;;21.80;92.10;;;;;;4896881;29;20510;-75
2021/09/15 10:19:36;;;;;;;9.43;4.67;;;21.80;92.30;;;;;;4898758;29;20423;-75
2021/09/15 10:22:03;;;;;;;9.80;4.50;;;21.80;92.60;;;;;;4910141;29;20461;-75
2021/09/15 10:24:48;;;;;;;9.43;4.90;;;21.80;92.90;;;;;;4895556;29;20423;-77
2021/09/15 10:27:19;;;;;;;28.47;17.27;;;22.00;93.30;;;;;;4878036;29;20459;-76
2021/09/15 10:30:05;;;;;;;19.40;8.73;;;22.10;92.90;;;;;;4875915;29;20416;-76
2021/09/15 10:32:33;;;;;;;8.80;5.40;;;22.10;92.60;;;;;;4876850;29;20602;-76
2021/09/15 10:35:01;;;;;;;8.70;5.60;;;22.20;92.80;;;;;;4877322;29;20936;-74
2021/09/15 10:37:26;;;;;;;7.60;4.87;;;22.30;92.70;;;;;;4876650;29;20838;-75
2021/09/15 10:40:01;;;;;;;9.90;4.70;;;22.40;92.60;;;;;;4875002;29;20504;-75
2021/09/15 10:45:22;;;;;;;5.33;4.50;;;22.60;91.90;;;;;;4882246;29;20431;-76
2021/09/15 10:47:53;;;;;;;7.83;4.73;;;22.60;91.70;;;;;;4898098;29;20415;-76
2021/09/15 10:50:29;;;;;;;10.30;4.77;;;22.60;91.70;;;;;;4897026;29;20482;-76
2021/09/15 10:53:03;;;;;;;13.00;5.30;;;22.50;91.60;;;;;;4892732;29;20475;-75
2021/09/15 10:55:44;;;;;;;10.80;4.40;;;22.50;91.60;;;;;;4880708;29;20457;-76
2021/09/15 10:58:11;;;;;;;4.70;3.97;;;22.50;91.80;;;;;;4881883;29;20420;-76
2021/09/15 11:00:48;;;;;;;6.50;3.80;;;22.40;91.90;;;;;;4901875;29;20445;-76
2021/09/15 11:03:30;;;;;;;6.17;4.00;;;22.40;92.00;;;;;;4898683;29;20466;-76
2021/09/15 11:05:57;;;;;;;7.97;4.50;;;22.40;92.00;;;;;;4899568;29;20411;-74
2021/09/15 11:08:32;;;;;;;7.47;4.20;;;22.30;92.10;;;;;;4897834;29;20595;-74
2021/09/15 11:10:57;;;;;;;9.13;5.00;;;22.30;92.40;;;;;;4897375;29;20411;-72
2021/09/15 11:13:30;;;;;;;9.30;3.80;;;22.30;92.30;;;;;;4898023;29;20427;-74
2021/09/15 11:15:56;;;;;;;5.30;3.40;;;22.40;92.20;;;;;;4898027;29;20668;-73
2021/09/15 11:18:26;;;;;;;5.27;3.67;;;22.50;92.20;;;;;;4896702;29;20427;-73
2021/09/15 11:21:05;;;;;;;8.03;3.70;;;22.50;91.80;;;;;;4896675;29;20226;-73
2021/09/15 11:23:31;;;;;;;6.40;4.00;;;22.50;91.80;;;;;;4896754;29;20423;-74
2021/09/15 11:25:58;;;;;;;11.93;4.00;;;22.50;92.00;;;;;;4899189;29;20471;-74
2021/09/15 11:28:24;;;;;;;6.37;3.50;;;22.40;92.10;;;;;;4898891;29;20182;-73
2021/09/15 11:30:56;;;;;;;7.00;3.97;;;22.30;92.50;;;;;;4899449;29;20426;-73
2021/09/15 11:33:30;;;;;;;3.30;2.73;;;22.20;92.60;;;;;;4905694;29;20428;-74
2021/09/15 11:35:57;;;;;;;4.70;3.10;;;22.00;92.90;;;;;;4892910;29;20431;-73
2021/09/15 11:38:32;;;;;;;7.30;3.63;;;21.80;93.40;;;;;;4893822;29;20918;-74
2021/09/15 11:41:08;;;;;;;8.23;4.43;;;21.80;94.00;;;;;;4897174;29;20920;-73
2021/09/15 11:43:35;;;;;;;17.40;12.17;;;21.90;94.50;;;;;;4897474;29;20825;-73
2021/09/15 11:46:00;;;;;;;5.67;5.07;;;22.20;94.40;;;;;;4897151;29;20458;-74
2021/09/15 11:48:28;;;;;;;5.60;4.60;;;22.40;94.00;;;;;;4892424;29;20863;-74
2021/09/15 11:50:54;;;;;;;6.97;3.93;;;22.60;93.20;;;;;;4877519;29;20226;-74
2021/09/15 11:53:21;;;;;;;8.13;4.93;;;22.70;93.20;;;;;;4897541;29;21024;-73
2021/09/15 11:55:50;;;;;;;9.90;5.07;;;22.60;93.20;;;;;;4901715;29;20408;-75
2021/09/15 11:58:17;;;;;;;9.50;5.70;;;22.60;93.10;;;;;;4901312;29;20918;-74
2021/09/15 12:00:43;;;;;;;8.57;5.03;;;22.50;93.40;;;;;;4897988;29;20428;-73
2021/09/15 12:03:12;;;;;;;8.83;4.90;;;22.30;93.20;;;;;;4897909;29;20438;-75
2021/09/15 12:05:43;;;;;;;10.00;4.93;;;22.20;93.50;;;;;;4897721;29;20455;-73
2021/09/15 12:08:09;;;;;;;6.80;3.10;;;22.00;93.80;;;;;;4896015;29;20561;-73
2021/09/15 12:10:36;;;;;;;11.20;4.60;;;21.90;94.00;;;;;;4893913;29;20448;-74
2021/09/15 12:13:02;;;;;;;11.83;5.37;;;21.80;94.40;;;;;;4895355;29;20459;-74
2021/09/15 12:15:28;;;;;;;6.90;4.07;;;21.80;94.80;;;;;;4897330;29;20774;-73
2021/09/15 12:17:57;;;;;;;7.33;4.30;;;21.80;95.30;;;;;;4896071;29;20223;-73
2021/09/15 12:20:48;;;;;;;8.70;4.23;;;22.00;95.60;;;;;;4896787;29;20179;-72
2021/09/15 12:23:16;;;;;;;7.63;5.17;;;22.20;95.60;;;;;;4896763;29;20759;-73
2021/09/15 12:25:56;;;;;;;7.20;4.60;;;22.40;95.00;;;;;;4896591;29;20419;-73
2021/09/15 12:28:28;;;;;;;8.13;5.37;;;22.70;94.40;;;;;;4896612;29;20933;-73
2021/09/15 12:30:54;;;;;;;9.63;5.20;;;22.90;93.70;;;;;;4896770;29;20434;-73
2021/09/15 12:33:22;;;;;;;8.10;5.63;;;23.10;93.10;;;;;;4895378;29;20557;-74
2021/09/15 12:36:14;;;;;;;8.93;4.90;;;23.30;92.60;;;;;;4892978;29;20422;-74
2021/09/15 12:38:49;;;;;;;6.77;5.27;;;23.50;92.10;;;;;;4879314;29;20976;-73
2021/09/15 12:41:16;;;;;;;9.23;5.93;;;23.70;91.40;;;;;;4886869;29;20470;-74
2021/09/15 12:43:42;;;;;;;9.87;6.80;;;23.80;91.30;;;;;;4896006;29;20434;-73
2021/09/15 12:46:28;;;;;;;13.50;9.60;;;23.80;90.90;;;;;;4895962;29;20826;-73
2021/09/15 12:48:54;;;;;;;12.90;7.00;;;23.70;90.90;;;;;;4896245;29;20270;-73
2021/09/15 12:51:21;;;;;;;10.17;6.97;;;23.60;90.80;;;;;;4896676;29;20798;-73
2021/09/15 12:53:52;;;;;;;8.90;6.90;;;23.60;90.90;;;;;;4910393;29;20419;-74
2021/09/15 12:56:23;;;;;;;10.63;6.67;;;23.50;91.10;;;;;;4895878;29;20416;-74
2021/09/15 12:58:50;;;;;;;10.53;6.90;;;23.50;91.20;;;;;;4896251;29;20437;-74
2021/09/15 13:01:23;;;;;;;7.90;6.40;;;23.50;91.20;;;;;;4895244;29;20489;-74
2021/09/15 13:03:52;;;;;;;8.43;7.20;;;23.60;91.40;;;;;;4895843;29;20419;-74